Time;durP1;ratioP1;P1;durP2;ratioP2;P2;SDS_P1;SDS_P2;PMS_P1;PMS_P2;Temp;Humidity;BMP_temperature;BMP_pressure;BME280_temperature;BME280_humidity;BME280_pressure;Samples;Min_cycle;Max_cycle;Signal;HPM_P1;HPM_P2
2021/12/12 00:01:26;;;;;;;2.30;2.20;;;4.50;99.90;;;;;;5030786;28;20452;-78
2021/12/12 00:04:04;;;;;;;1.92;1.92;;;4.60;99.90;;;;;;5031680;28;20779;-78
2021/12/12 00:06:35;;;;;;;2.20;2.10;;;4.60;99.90;;;;;;5025280;28;20710;-79
2021/12/12 00:09:06;;;;;;;2.30;2.20;;;4.60;99.90;;;;;;5026102;28;20229;-78
2021/12/12 00:11:36;;;;;;;2.40;2.30;;;4.50;99.90;;;;;;5021408;28;20240;-79
2021/12/12 00:14:08;;;;;;;2.40;2.30;;;4.50;99.90;;;;;;5027933;28;20227;-78
2021/12/12 00:16:37;;;;;;;2.50;2.40;;;4.50;99.90;;;;;;5031656;28;20235;-78
2021/12/12 00:19:06;;;;;;;2.13;2.03;;;4.50;99.90;;;;;;5021584;28;20234;-76
2021/12/12 00:21:36;;;;;;;2.30;2.20;;;4.50;99.90;;;;;;5030202;28;20234;-78
2021/12/12 00:24:07;;;;;;;2.33;2.22;;;4.50;99.90;;;;;;5036788;28;20237;-79
2021/12/12 00:26:35;;;;;;;2.20;2.10;;;4.50;99.90;;;;;;5036821;28;20228;-78
2021/12/12 00:29:02;;;;;;;2.05;1.95;;;4.50;99.90;;;;;;5035541;28;20285;-79
2021/12/12 00:31:30;;;;;;;2.30;2.20;;;4.40;99.90;;;;;;5006673;28;20220;-79
2021/12/12 00:33:59;;;;;;;2.42;2.33;;;4.40;99.90;;;;;;5020768;28;20231;-80
2021/12/12 00:36:28;;;;;;;2.63;2.40;;;4.40;99.90;;;;;;5043900;28;20223;-79
2021/12/12 00:38:59;;;;;;;2.08;1.98;;;4.40;99.90;;;;;;5030983;28;20228;-77
2021/12/12 00:41:29;;;;;;;1.90;1.88;;;4.50;99.90;;;;;;5026550;28;20227;-79
2021/12/12 00:43:59;;;;;;;2.20;2.10;;;4.50;99.90;;;;;;5031049;28;20262;-78
2021/12/12 00:46:27;;;;;;;2.08;1.98;;;4.50;99.90;;;;;;5031400;28;20230;-78
2021/12/12 00:48:55;;;;;;;2.47;2.38;;;4.50;99.90;;;;;;5034989;28;20302;-78
2021/12/12 00:51:29;;;;;;;2.35;2.25;;;4.50;99.90;;;;;;5020113;28;20219;-79
2021/12/12 00:53:57;;;;;;;2.20;2.10;;;4.50;99.90;;;;;;5029621;28;20231;-78
2021/12/12 00:56:26;;;;;;;1.67;1.67;;;4.50;99.90;;;;;;5029374;28;20250;-79
2021/12/12 00:58:53;;;;;;;2.28;2.17;;;4.50;99.90;;;;;;5036962;22;20731;-73
2021/12/12 01:01:25;;;;;;;2.45;2.25;;;4.50;99.90;;;;;;5037441;28;20230;-74
2021/12/12 01:03:55;;;;;;;2.33;2.22;;;4.50;99.90;;;;;;5039191;28;20599;-73
2021/12/12 01:06:24;;;;;;;2.50;2.40;;;4.20;99.90;;;;;;5035764;28;20284;-72
2021/12/12 01:08:53;;;;;;;2.60;2.50;;;3.90;99.90;;;;;;5033364;28;20752;-77
2021/12/12 01:11:25;;;;;;;2.10;2.03;;;3.70;99.90;;;;;;5040904;28;20234;-73
2021/12/12 01:13:52;;;;;;;2.50;2.40;;;3.50;99.90;;;;;;5041385;28;20257;-74
2021/12/12 01:16:24;;;;;;;2.33;2.22;;;3.40;99.90;;;;;;5037211;28;20227;-75
2021/12/12 01:18:56;;;;;;;2.20;2.10;;;3.50;99.90;;;;;;5038457;28;20226;-74
2021/12/12 01:21:29;;;;;;;2.00;1.90;;;3.70;99.90;;;;;;5040426;28;20238;-72
2021/12/12 01:24:04;;;;;;;2.30;2.20;;;3.90;99.90;;;;;;5047623;28;20229;-74
2021/12/12 01:26:32;;;;;;;2.00;1.95;;;4.00;99.90;;;;;;5044401;28;20229;-74
2021/12/12 01:29:01;;;;;;;2.35;2.25;;;4.10;99.90;;;;;;5045057;28;20222;-73
2021/12/12 01:31:32;;;;;;;2.25;2.15;;;4.10;99.90;;;;;;5045768;28;20720;-75
2021/12/12 01:34:10;;;;;;;2.40;2.30;;;4.00;99.90;;;;;;5037951;28;20226;-75
2021/12/12 01:36:44;;;;;;;2.28;2.17;;;3.80;99.90;;;;;;5047114;28;20217;-73
2021/12/12 01:39:12;;;;;;;2.53;2.38;;;3.50;99.90;;;;;;5044709;28;20716;-72
2021/12/12 01:41:42;;;;;;;2.50;2.40;;;3.30;99.90;;;;;;5046568;28;20294;-72
2021/12/12 01:44:15;;;;;;;2.40;2.30;;;3.10;99.90;;;;;;5043729;28;20654;-80
2021/12/12 01:46:48;;;;;;;2.38;2.28;;;3.00;99.90;;;;;;5046885;28;20287;-80
2021/12/12 01:49:19;;;;;;;2.28;2.17;;;2.80;99.90;;;;;;5048499;28;20292;-73
2021/12/12 01:51:48;;;;;;;2.35;2.25;;;2.80;99.90;;;;;;5041810;28;20234;-72
2021/12/12 01:54:25;;;;;;;2.22;2.13;;;2.80;99.90;;;;;;5042853;28;20223;-72
2021/12/12 01:56:58;;;;;;;2.15;2.05;;;2.70;99.90;;;;;;5041500;28;20215;-75
2021/12/12 01:59:29;;;;;;;2.22;2.13;;;2.80;99.90;;;;;;5036182;28;20251;-75
2021/12/12 02:02:01;;;;;;;2.33;2.22;;;2.80;99.90;;;;;;5044679;28;20231;-73
2021/12/12 02:04:35;;;;;;;2.03;1.92;;;2.80;99.90;;;;;;5017224;28;20261;-71
2021/12/12 02:07:04;;;;;;;2.30;2.20;;;2.90;99.90;;;;;;5042504;28;20246;-72
2021/12/12 02:09:32;;;;;;;2.42;2.33;;;2.90;99.90;;;;;;5041821;28;20226;-72
2021/12/12 02:12:01;;;;;;;2.33;2.22;;;2.90;99.90;;;;;;5038140;28;20219;-77
2021/12/12 02:14:32;;;;;;;2.28;2.17;;;3.00;99.90;;;;;;5039161;28;20219;-76
2021/12/12 02:17:08;;;;;;;2.40;2.30;;;3.00;99.90;;;;;;5043293;28;20216;-74
2021/12/12 02:19:44;;;;;;;2.50;2.40;;;3.10;99.90;;;;;;5036756;28;20724;-74
2021/12/12 02:22:33;;;;;;;2.50;2.40;;;3.10;99.90;;;;;;5043416;28;20223;-77
2021/12/12 02:35:53;;;;;;;2.13;2.03;;;3.10;99.90;;;;;;5039985;28;20245;-74
2021/12/12 02:38:25;;;;;;;2.60;2.40;;;3.20;99.90;;;;;;5040431;28;20229;-74
2021/12/12 02:40:56;;;;;;;2.50;2.40;;;3.40;99.90;;;;;;5042234;28;20787;-74
2021/12/12 02:43:27;;;;;;;2.58;2.47;;;3.40;99.90;;;;;;5044530;28;20214;-73
2021/12/12 02:45:57;;;;;;;2.08;2.00;;;3.40;99.90;;;;;;5041408;28;20268;-72
2021/12/12 02:48:28;;;;;;;2.50;2.40;;;3.40;99.90;;;;;;5039334;28;20471;-73
2021/12/12 02:50:57;;;;;;;2.22;2.13;;;3.50;99.90;;;;;;5038121;28;20227;-72
2021/12/12 02:53:29;;;;;;;2.50;2.40;;;3.50;99.90;;;;;;5042585;28;20717;-74
2021/12/12 02:55:59;;;;;;;2.42;2.33;;;3.60;99.90;;;;;;5042462;28;20218;-73
2021/12/12 02:58:27;;;;;;;2.22;2.13;;;3.60;99.90;;;;;;5017694;28;20222;-73
2021/12/12 03:01:05;;;;;;;2.28;2.17;;;3.70;99.90;;;;;;5040001;28;20246;-73
2021/12/12 03:03:35;;;;;;;1.70;1.70;;;3.70;99.90;;;;;;5040479;28;20625;-71
2021/12/12 03:06:03;;;;;;;2.55;2.45;;;3.70;99.90;;;;;;5034995;28;20230;-74
2021/12/12 03:08:32;;;;;;;2.30;2.20;;;3.70;99.90;;;;;;5038124;28;20222;-76
2021/12/12 03:10:59;;;;;;;2.05;1.95;;;3.70;99.90;;;;;;5038732;28;20252;-71
2021/12/12 03:13:26;;;;;;;2.38;2.28;;;3.70;99.90;;;;;;5039752;28;20248;-74
2021/12/12 03:15:55;;;;;;;2.35;2.25;;;3.70;99.90;;;;;;5039374;28;20657;-73
2021/12/12 03:18:26;;;;;;;2.60;2.50;;;3.70;99.90;;;;;;5039580;28;20223;-73
2021/12/12 03:20:55;;;;;;;2.22;2.15;;;3.80;99.90;;;;;;5021087;28;20214;-73
2021/12/12 03:23:25;;;;;;;2.08;1.98;;;3.80;99.90;;;;;;5037342;28;20245;-76
2021/12/12 03:25:59;;;;;;;2.55;2.42;;;3.80;99.90;;;;;;5036008;28;20288;-77
2021/12/12 03:28:28;;;;;;;2.05;1.95;;;3.80;99.90;;;;;;5034661;28;20288;-74
2021/12/12 03:30:59;;;;;;;1.63;1.63;;;3.80;99.90;;;;;;5046553;28;20211;-73
2021/12/12 03:33:28;;;;;;;2.28;2.17;;;3.80;99.90;;;;;;5047424;28;20256;-72
2021/12/12 03:35:57;;;;;;;2.30;2.20;;;3.90;99.90;;;;;;5040726;28;20233;-75
2021/12/12 03:38:28;;;;;;;2.00;1.92;;;3.90;99.90;;;;;;5051658;28;20563;-73
2021/12/12 03:40:58;;;;;;;2.17;2.08;;;3.80;99.90;;;;;;5045366;28;20218;-74
2021/12/12 03:43:28;;;;;;;2.00;2.00;;;3.80;99.90;;;;;;5045509;28;20217;-72
2021/12/12 03:45:55;;;;;;;2.25;2.15;;;3.80;99.90;;;;;;5044009;28;20219;-73
2021/12/12 03:48:27;;;;;;;2.33;2.22;;;3.70;99.90;;;;;;5042411;28;20226;-72
2021/12/12 03:50:59;;;;;;;2.42;2.33;;;3.60;99.90;;;;;;5044500;28;20646;-73
2021/12/12 03:53:28;;;;;;;2.40;2.30;;;3.50;99.90;;;;;;5042552;28;20223;-74
2021/12/12 03:55:58;;;;;;;2.28;2.17;;;3.50;99.90;;;;;;5020023;28;20642;-76
2021/12/12 03:58:26;;;;;;;1.73;1.73;;;3.40;99.90;;;;;;5047987;28;20242;-73
2021/12/12 04:00:57;;;;;;;2.10;2.00;;;3.50;99.90;;;;;;5043419;28;20222;-75
2021/12/12 04:03:24;;;;;;;2.40;2.30;;;3.60;99.90;;;;;;5046168;28;20222;-78
2021/12/12 04:05:58;;;;;;;1.88;1.88;;;3.60;99.90;;;;;;5043073;28;20716;-73
2021/12/12 04:08:26;;;;;;;2.40;2.30;;;3.50;99.90;;;;;;5045385;28;20897;-74
2021/12/12 04:10:54;;;;;;;1.80;1.80;;;3.40;99.90;;;;;;5040593;28;20257;-73
2021/12/12 04:13:22;;;;;;;2.20;2.00;;;3.40;99.90;;;;;;5042241;28;20274;-73
2021/12/12 04:15:51;;;;;;;1.80;1.80;;;3.40;99.90;;;;;;5045734;28;20214;-75
2021/12/12 04:18:22;;;;;;;2.40;2.30;;;3.30;99.90;;;;;;5041704;28;20694;-75
2021/12/12 04:20:49;;;;;;;2.25;2.15;;;3.30;99.90;;;;;;5040079;28;20254;-73
2021/12/12 04:23:18;;;;;;;2.33;2.22;;;3.20;99.90;;;;;;5041727;28;20340;-73
2021/12/12 04:25:45;;;;;;;2.30;2.20;;;3.20;99.90;;;;;;5040275;28;20219;-77
2021/12/12 04:28:13;;;;;;;2.45;2.35;;;3.20;99.90;;;;;;5041142;28;20225;-72
2021/12/12 04:30:42;;;;;;;1.90;1.90;;;3.40;99.90;;;;;;5043580;28;20633;-74
2021/12/12 04:33:10;;;;;;;2.28;2.17;;;3.50;99.90;;;;;;5046927;28;20600;-76
2021/12/12 04:35:37;;;;;;;2.38;2.28;;;3.50;99.90;;;;;;5042080;28;20230;-76
2021/12/12 04:38:05;;;;;;;2.05;2.05;;;3.60;99.90;;;;;;5042758;28;22214;-71
2021/12/12 04:40:35;;;;;;;2.50;2.40;;;3.60;99.90;;;;;;5041653;28;20226;-73
2021/12/12 04:43:02;;;;;;;2.15;2.05;;;3.60;99.90;;;;;;5044755;28;20229;-73
2021/12/12 04:46:03;;;;;;;2.03;2.03;;;3.60;99.90;;;;;;5041861;28;20715;-76
2021/12/12 04:51:24;;;;;;;2.55;2.45;;;3.50;99.90;;;;;;5042372;28;20221;-75
2021/12/12 04:53:55;;;;;;;2.38;2.28;;;3.50;99.90;;;;;;5042622;28;20230;-71
2021/12/12 04:56:29;;;;;;;2.40;2.30;;;3.50;99.90;;;;;;5040236;28;20219;-72
2021/12/12 04:59:04;;;;;;;2.25;2.15;;;3.50;99.90;;;;;;5040468;28;20227;-75
2021/12/12 05:01:37;;;;;;;2.35;2.25;;;3.40;99.90;;;;;;5041326;28;20272;-73
2021/12/12 05:04:09;;;;;;;2.10;2.00;;;3.40;99.90;;;;;;5040063;28;22750;-73
2021/12/12 05:06:41;;;;;;;2.40;2.30;;;3.40;99.90;;;;;;5041083;28;22057;-77
2021/12/12 05:09:14;;;;;;;2.17;2.08;;;3.40;99.90;;;;;;5010197;28;20231;-73
2021/12/12 05:11:51;;;;;;;2.30;2.20;;;3.20;99.90;;;;;;5043157;28;20219;-73
2021/12/12 05:14:23;;;;;;;2.08;2.00;;;3.20;99.90;;;;;;5039090;28;20696;-74
2021/12/12 05:16:58;;;;;;;2.47;2.38;;;3.20;99.90;;;;;;5043289;28;20225;-74
2021/12/12 05:19:28;;;;;;;2.47;2.38;;;3.20;99.90;;;;;;5047895;28;20249;-78
2021/12/12 05:22:02;;;;;;;2.40;2.30;;;3.20;99.90;;;;;;5043576;28;20222;-73
2021/12/12 05:24:32;;;;;;;1.88;1.85;;;3.10;99.90;;;;;;5043012;28;20223;-73
2021/12/12 05:27:05;;;;;;;2.17;2.08;;;3.20;99.90;;;;;;5042605;28;20262;-71
2021/12/12 05:29:37;;;;;;;2.50;2.40;;;3.10;99.90;;;;;;5044703;28;20272;-72
2021/12/12 05:32:09;;;;;;;2.30;2.20;;;3.10;99.90;;;;;;5039895;28;20256;-72
2021/12/12 05:34:39;;;;;;;2.20;2.10;;;3.20;99.90;;;;;;5042435;28;20276;-74
2021/12/12 05:37:10;;;;;;;2.20;2.10;;;3.40;99.90;;;;;;5041934;28;20226;-72
2021/12/12 05:39:38;;;;;;;2.45;2.35;;;3.40;99.90;;;;;;5043615;28;20235;-73
2021/12/12 05:42:06;;;;;;;2.33;2.22;;;3.40;99.90;;;;;;5042970;28;20231;-73
2021/12/12 05:44:34;;;;;;;2.50;2.40;;;3.20;99.90;;;;;;5040923;28;20597;-72
2021/12/12 05:47:04;;;;;;;2.20;2.10;;;3.10;99.90;;;;;;5045620;28;20227;-74
2021/12/12 05:49:33;;;;;;;2.40;2.30;;;3.10;99.90;;;;;;5045995;28;20635;-76
2021/12/12 05:52:00;;;;;;;2.47;2.38;;;3.20;99.90;;;;;;5035805;28;20673;-75
2021/12/12 05:54:29;;;;;;;2.67;2.53;;;3.10;99.90;;;;;;5043068;28;20634;-75
2021/12/12 05:56:58;;;;;;;2.65;2.55;;;3.00;99.90;;;;;;5041714;28;20310;-73
2021/12/12 05:59:26;;;;;;;2.30;2.20;;;3.00;99.90;;;;;;5041607;28;20310;-75
2021/12/12 06:01:53;;;;;;;2.15;2.05;;;2.90;99.90;;;;;;4970252;28;20265;-75
2021/12/12 06:04:20;;;;;;;2.20;2.10;;;3.00;99.90;;;;;;5036469;28;20220;-77
2021/12/12 06:06:49;;;;;;;2.20;2.10;;;3.00;99.90;;;;;;5040294;28;20226;-74
2021/12/12 06:09:18;;;;;;;2.30;2.20;;;3.00;99.90;;;;;;5041089;28;20231;-75
2021/12/12 06:11:51;;;;;;;2.60;2.50;;;2.80;99.90;;;;;;5044127;28;20656;-74
2021/12/12 06:14:19;;;;;;;2.92;2.80;;;2.80;99.90;;;;;;5043148;28;20230;-73
2021/12/12 06:16:48;;;;;;;2.90;2.80;;;2.80;99.90;;;;;;5011427;28;20218;-74
2021/12/12 06:19:18;;;;;;;3.00;2.90;;;2.90;99.90;;;;;;5038510;28;20234;-74
2021/12/12 06:21:50;;;;;;;2.65;2.55;;;2.90;99.90;;;;;;5048331;28;20226;-72
2021/12/12 06:24:17;;;;;;;2.67;2.58;;;2.90;99.90;;;;;;5043119;28;20225;-71
2021/12/12 06:26:44;;;;;;;3.20;3.00;;;2.90;99.90;;;;;;5045470;28;20218;-73
2021/12/12 06:29:11;;;;;;;3.00;2.90;;;2.80;99.90;;;;;;5046263;28;20219;-73
2021/12/12 06:31:42;;;;;;;3.05;2.90;;;2.80;99.90;;;;;;5039640;28;20256;-72
2021/12/12 06:34:11;;;;;;;2.35;2.20;;;2.80;99.90;;;;;;5046378;28;20228;-75
2021/12/12 06:36:41;;;;;;;2.60;2.50;;;2.80;99.90;;;;;;5045847;28;20230;-71
2021/12/12 06:39:11;;;;;;;2.78;2.67;;;2.80;99.90;;;;;;5039459;28;20233;-76
2021/12/12 06:41:39;;;;;;;2.70;2.60;;;2.70;99.90;;;;;;5042252;28;20274;-73
2021/12/12 06:44:10;;;;;;;2.53;2.42;;;2.60;99.90;;;;;;5039362;28;20739;-73
2021/12/12 06:46:38;;;;;;;2.90;2.80;;;2.50;99.90;;;;;;5042839;28;20583;-72
2021/12/12 06:49:07;;;;;;;2.80;2.70;;;2.50;99.90;;;;;;5042994;28;20230;-74
2021/12/12 06:51:37;;;;;;;2.80;2.70;;;2.50;99.90;;;;;;5041870;28;20230;-72
2021/12/12 06:54:05;;;;;;;3.05;2.92;;;2.50;99.90;;;;;;5041901;28;20231;-72
2021/12/12 06:56:34;;;;;;;2.72;2.63;;;2.50;99.90;;;;;;5040698;28;20219;-76
2021/12/12 06:59:02;;;;;;;2.45;2.35;;;2.60;99.90;;;;;;5040859;28;20242;-75
2021/12/12 07:01:32;;;;;;;2.22;2.13;;;2.70;99.90;;;;;;5042241;28;20219;-75
2021/12/12 07:04:00;;;;;;;2.40;2.30;;;2.80;99.90;;;;;;5041461;28;20242;-74
2021/12/12 07:06:29;;;;;;;2.58;2.47;;;3.00;99.90;;;;;;5043964;28;20214;-78
2021/12/12 07:08:59;;;;;;;2.60;2.50;;;3.10;99.90;;;;;;5038530;28;20218;-75
2021/12/12 07:11:28;;;;;;;2.50;2.40;;;3.20;99.90;;;;;;5045390;28;20218;-77
2021/12/12 07:13:57;;;;;;;2.53;2.42;;;3.20;99.90;;;;;;5043735;28;20260;-72
2021/12/12 07:16:25;;;;;;;2.70;2.60;;;3.10;99.90;;;;;;5044176;28;20599;-73
2021/12/12 07:18:54;;;;;;;2.50;2.40;;;3.10;99.90;;;;;;5040179;28;20660;-73
2021/12/12 07:21:24;;;;;;;2.33;2.22;;;3.00;99.90;;;;;;5036804;28;20215;-74
2021/12/12 07:23:52;;;;;;;2.42;2.33;;;3.00;99.90;;;;;;5039321;28;20296;-74
2021/12/12 07:26:21;;;;;;;2.30;2.20;;;3.00;99.90;;;;;;5042081;28;20276;-74
2021/12/12 07:28:51;;;;;;;2.22;2.13;;;3.00;99.90;;;;;;5039292;28;20313;-74
2021/12/12 07:31:21;;;;;;;1.95;1.95;;;2.90;99.90;;;;;;5038972;28;20230;-73
2021/12/12 07:33:51;;;;;;;2.40;2.30;;;2.90;99.90;;;;;;5042688;28;20581;-72
2021/12/12 07:36:21;;;;;;;2.70;2.60;;;3.00;99.90;;;;;;5042319;28;20227;-74
2021/12/12 07:38:54;;;;;;;2.60;2.50;;;3.00;99.90;;;;;;5041530;28;20647;-74
2021/12/12 07:41:24;;;;;;;2.42;2.33;;;3.00;99.90;;;;;;5064031;23;20232;-75
2021/12/12 07:43:52;;;;;;;2.88;2.60;;;3.00;99.90;;;;;;5024857;28;20735;-77
2021/12/12 07:46:21;;;;;;;2.50;2.40;;;3.00;99.90;;;;;;5063212;28;20226;-74
2021/12/12 07:48:55;;;;;;;2.08;1.98;;;2.90;99.90;;;;;;5061442;28;20228;-77
2021/12/12 07:51:25;;;;;;;3.38;3.08;;;2.80;99.90;;;;;;5067114;28;20230;-80
2021/12/12 07:53:57;;;;;;;2.80;2.70;;;2.80;99.90;;;;;;5071453;28;20279;-77
2021/12/12 07:56:28;;;;;;;2.72;2.63;;;2.70;99.90;;;;;;5066725;28;20218;-77
2021/12/12 07:58:58;;;;;;;3.10;2.90;;;2.70;99.90;;;;;;5067527;28;20288;-77
2021/12/12 08:01:27;;;;;;;2.85;2.75;;;2.70;99.90;;;;;;5067065;28;20230;-78
2021/12/12 08:03:56;;;;;;;3.25;3.05;;;2.60;99.90;;;;;;5062718;28;20225;-78
2021/12/12 08:06:26;;;;;;;5.38;4.47;;;2.50;99.90;;;;;;5062340;28;20711;-77
2021/12/12 08:08:54;;;;;;;5.05;4.60;;;2.40;99.90;;;;;;5061891;28;20222;-77
2021/12/12 08:11:25;;;;;;;4.35;4.05;;;2.40;99.90;;;;;;5068688;28;20222;-78
2021/12/12 08:13:52;;;;;;;3.42;3.22;;;2.50;99.90;;;;;;5065266;28;20237;-80
2021/12/12 08:16:20;;;;;;;3.47;3.28;;;3.40;99.90;;;;;;5069338;28;20218;-78
2021/12/12 08:18:50;;;;;;;2.80;2.60;;;4.40;99.90;;;;;;5071801;28;20225;-79
2021/12/12 08:21:18;;;;;;;3.20;3.00;;;5.40;99.90;;;;;;5060455;28;20229;-79
2021/12/12 08:23:46;;;;;;;3.00;2.80;;;6.20;99.90;;;;;;5087758;28;20242;-78
2021/12/12 08:26:14;;;;;;;3.45;3.15;;;6.60;99.90;;;;;;5074260;28;20225;-80
2021/12/12 08:28:43;;;;;;;2.83;2.65;;;7.00;99.90;;;;;;5062615;28;20299;-80
2021/12/12 08:31:12;;;;;;;3.20;3.00;;;7.30;99.90;;;;;;5072736;28;20234;-79
2021/12/12 08:33:40;;;;;;;3.10;2.90;;;7.70;99.90;;;;;;5076223;28;20604;-80
2021/12/12 08:36:09;;;;;;;3.20;3.00;;;8.10;99.90;;;;;;5076949;28;20226;-77
2021/12/12 08:38:37;;;;;;;2.83;2.40;;;8.40;99.90;;;;;;5070737;28;20229;-78
2021/12/12 08:41:07;;;;;;;2.30;2.20;;;8.80;99.90;;;;;;5074295;28;20230;-79
2021/12/12 08:43:34;;;;;;;2.78;2.58;;;9.00;99.90;;;;;;5072726;28;20229;-77
2021/12/12 08:46:05;;;;;;;2.55;2.35;;;9.50;99.90;;;;;;5070805;28;20468;-78
2021/12/12 08:48:36;;;;;;;2.75;2.55;;;10.00;99.90;;;;;;5067214;28;20218;-77
2021/12/12 08:51:06;;;;;;;2.60;2.40;;;10.60;99.90;;;;;;5069508;28;20226;-78
2021/12/12 08:53:35;;;;;;;2.45;2.25;;;11.30;99.90;;;;;;5066469;28;20238;-78
2021/12/12 08:56:08;;;;;;;2.42;2.33;;;12.00;99.90;;;;;;5063921;28;20653;-77
2021/12/12 08:58:36;;;;;;;2.67;2.47;;;12.50;97.90;;;;;;5068122;28;20304;-78
2021/12/12 09:01:06;;;;;;;2.35;2.15;;;12.90;98.00;;;;;;5067301;28;20245;-77
2021/12/12 09:03:41;;;;;;;2.70;2.50;;;13.30;95.10;;;;;;5062370;28;20234;-78
2021/12/12 09:06:12;;;;;;;2.03;1.92;;;13.20;94.20;;;;;;5070671;28;20221;-79
2021/12/12 09:08:48;;;;;;;2.30;2.10;;;13.90;94.80;;;;;;5068160;28;20232;-78
2021/12/12 09:11:23;;;;;;;2.63;2.30;;;15.00;92.50;;;;;;5058505;28;20639;-78
2021/12/12 09:13:55;;;;;;;2.17;2.08;;;16.60;88.50;;;;;;5066300;28;20641;-77
2021/12/12 09:16:26;;;;;;;2.92;2.63;;;18.00;80.00;;;;;;5040624;28;20646;-77
2021/12/12 09:18:56;;;;;;;2.58;2.38;;;18.80;75.10;;;;;;5083931;28;20222;-78
2021/12/12 09:21:28;;;;;;;2.28;2.08;;;19.70;70.80;;;;;;5076689;28;20226;-78
2021/12/12 09:24:06;;;;;;;2.53;2.33;;;20.70;66.40;;;;;;5073321;28;20218;-77
2021/12/12 09:26:39;;;;;;;3.25;2.35;;;20.50;60.10;;;;;;5068684;28;20230;-78
2021/12/12 09:29:16;;;;;;;2.35;2.15;;;20.30;60.50;;;;;;5074293;28;20229;-77
2021/12/12 09:31:50;;;;;;;2.00;1.90;;;20.60;61.30;;;;;;5065715;28;20226;-74
2021/12/12 09:34:23;;;;;;;1.75;1.65;;;21.50;59.90;;;;;;5068040;28;20225;-78
2021/12/12 09:36:55;;;;;;;1.88;1.77;;;22.20;58.70;;;;;;5069927;28;20279;-75
2021/12/12 09:39:28;;;;;;;2.40;2.20;;;23.00;57.00;;;;;;5073246;28;20222;-76
2021/12/12 09:42:12;;;;;;;2.53;1.88;;;23.20;53.90;;;;;;5072375;28;20233;-77
2021/12/12 09:45:05;;;;;;;1.77;1.67;;;23.10;52.90;;;;;;5049090;28;20251;-80
2021/12/12 09:48:27;;;;;;;1.77;1.67;;;22.90;50.50;;;;;;5031738;28;20217;-79
2021/12/12 09:51:14;;;;;;;2.95;2.03;;;22.40;52.10;;;;;;5064006;28;20233;-76
2021/12/12 09:54:02;;;;;;;2.05;1.85;;;21.10;53.30;;;;;;5063762;28;20222;-79
2021/12/12 09:56:40;;;;;;;2.10;2.00;;;19.80;55.10;;;;;;5067193;28;20214;-79
2021/12/12 09:59:26;;;;;;;2.15;2.05;;;18.60;59.20;;;;;;5068031;28;20218;-78
2021/12/12 10:02:16;;;;;;;2.17;2.00;;;17.50;61.60;;;;;;5070293;28;20560;-78
2021/12/12 10:04:53;;;;;;;3.47;2.30;;;16.40;64.00;;;;;;5071587;28;20214;-76
2021/12/12 10:07:34;;;;;;;2.58;2.25;;;15.60;66.10;;;;;;5069939;28;20221;-78
2021/12/12 10:10:06;;;;;;;2.05;1.95;;;15.20;69.00;;;;;;5069627;28;20247;-80
2021/12/12 10:12:39;;;;;;;2.38;2.10;;;14.90;71.00;;;;;;5067324;28;20230;-78
2021/12/12 10:15:12;;;;;;;2.03;1.92;;;14.90;70.40;;;;;;5069559;28;20291;-77
2021/12/12 10:17:44;;;;;;;2.50;2.03;;;14.90;70.90;;;;;;5068909;28;21355;-78
2021/12/12 10:20:13;;;;;;;2.67;2.47;;;15.00;71.40;;;;;;5068709;28;20225;-78
2021/12/12 10:22:56;;;;;;;2.30;2.20;;;14.70;71.00;;;;;;5071292;28;20229;-77
2021/12/12 10:25:28;;;;;;;2.97;1.90;;;14.50;70.20;;;;;;5067616;28;20306;-78
2021/12/12 10:28:02;;;;;;;2.60;2.40;;;14.30;71.50;;;;;;5069382;28;20237;-77
2021/12/12 10:30:32;;;;;;;3.22;2.92;;;14.40;72.10;;;;;;5070047;28;20256;-79
2021/12/12 10:33:07;;;;;;;3.42;2.63;;;14.50;72.70;;;;;;5070375;28;20214;-75
2021/12/12 10:35:40;;;;;;;2.40;2.15;;;14.60;72.70;;;;;;5070754;28;20225;-78
2021/12/12 10:38:12;;;;;;;2.58;2.22;;;14.40;73.20;;;;;;5073419;28;20229;-76
2021/12/12 10:40:45;;;;;;;2.42;2.22;;;14.20;73.70;;;;;;5068543;28;20226;-80
2021/12/12 10:43:22;;;;;;;2.28;2.10;;;14.40;74.30;;;;;;5070999;28;20218;-78
2021/12/12 10:45:55;;;;;;;1.90;1.80;;;14.80;74.10;;;;;;5074028;28;20221;-78
2021/12/12 10:48:31;;;;;;;2.75;2.55;;;14.70;73.50;;;;;;5077389;28;20767;-80
2021/12/12 10:51:04;;;;;;;3.22;3.03;;;14.40;74.00;;;;;;5068891;28;20225;-79
2021/12/12 10:53:36;;;;;;;2.65;2.45;;;14.40;74.10;;;;;;5071045;28;20451;-77
2021/12/12 10:56:09;;;;;;;2.88;2.53;;;14.30;73.80;;;;;;5067752;28;20217;-79
2021/12/12 10:58:43;;;;;;;1.65;1.55;;;14.60;74.10;;;;;;5075544;28;20227;-78
2021/12/12 11:01:14;;;;;;;1.67;1.58;;;14.60;73.20;;;;;;5064780;28;20252;-80
2021/12/12 11:03:49;;;;;;;1.80;1.70;;;14.30;73.70;;;;;;5068545;28;20814;-80
2021/12/12 11:06:20;;;;;;;3.35;2.47;;;14.30;74.60;;;;;;5069263;28;20233;-78
2021/12/12 11:08:56;;;;;;;6.90;4.43;;;14.40;74.10;;;;;;5071894;28;20218;-78
2021/12/12 11:11:26;;;;;;;14.20;7.60;;;14.20;74.60;;;;;;5071194;28;20232;-77
2021/12/12 11:14:07;;;;;;;9.63;5.13;;;14.20;73.70;;;;;;5069764;28;20225;-79
2021/12/12 11:16:41;;;;;;;7.07;4.40;;;13.90;73.80;;;;;;5065640;28;20225;-77
2021/12/12 11:19:14;;;;;;;6.75;3.80;;;14.00;75.10;;;;;;5066465;28;20225;-78
2021/12/12 11:21:45;;;;;;;6.00;3.17;;;14.20;74.50;;;;;;5066821;28;20222;-79
2021/12/12 11:24:19;;;;;;;2.95;2.65;;;14.00;75.00;;;;;;5068753;28;20263;-78
2021/12/12 11:26:53;;;;;;;3.00;2.65;;;13.90;74.40;;;;;;5058167;28;21023;-77
2021/12/12 11:29:27;;;;;;;2.55;2.22;;;13.80;74.40;;;;;;5068239;28;20218;-78
2021/12/12 11:31:57;;;;;;;2.13;1.90;;;13.90;74.90;;;;;;5071958;28;20213;-77
2021/12/12 11:34:25;;;;;;;1.70;1.60;;;13.80;74.40;;;;;;5068787;28;20218;-77
2021/12/12 11:37:08;;;;;;;1.90;1.80;;;13.60;73.60;;;;;;5056326;28;20227;-79
2021/12/12 11:39:41;;;;;;;1.20;1.20;;;13.60;73.60;;;;;;5074698;28;20232;-77
2021/12/12 11:42:16;;;;;;;2.03;1.88;;;13.40;75.30;;;;;;5078356;28;20229;-79
2021/12/12 11:45:01;;;;;;;1.50;1.40;;;13.40;74.10;;;;;;5062199;28;20679;-78
2021/12/12 11:47:44;;;;;;;1.50;1.40;;;13.40;75.00;;;;;;5068862;28;20214;-78
2021/12/12 11:50:15;;;;;;;1.58;1.48;;;13.50;74.80;;;;;;5071607;28;20229;-76
2021/12/12 11:52:55;;;;;;;1.52;1.42;;;13.80;75.00;;;;;;5071645;28;20735;-79
2021/12/12 11:55:28;;;;;;;2.15;1.95;;;14.10;72.80;;;;;;5068326;28;20236;-79
2021/12/12 11:58:05;;;;;;;1.90;1.80;;;14.10;74.20;;;;;;5074631;28;20244;-79
2021/12/12 12:00:38;;;;;;;2.28;2.08;;;14.00;74.00;;;;;;5074664;28;20226;-79
2021/12/12 12:03:23;;;;;;;1.73;1.63;;;14.10;74.00;;;;;;5075556;28;20230;-79
2021/12/12 12:06:02;;;;;;;1.48;1.38;;;13.90;72.80;;;;;;5079096;28;20222;-78
2021/12/12 12:08:36;;;;;;;1.30;1.30;;;14.00;72.90;;;;;;5073305;28;20225;-81
2021/12/12 12:11:20;;;;;;;1.40;1.30;;;14.20;72.30;;;;;;5062939;28;20217;-79
2021/12/12 12:13:55;;;;;;;1.48;1.40;;;14.40;73.70;;;;;;5076499;28;20352;-79
2021/12/12 12:16:34;;;;;;;1.70;1.60;;;14.50;73.10;;;;;;5077150;28;20225;-80
2021/12/12 12:19:10;;;;;;;2.60;2.40;;;14.60;72.80;;;;;;5075941;28;20213;-79
2021/12/12 12:21:45;;;;;;;3.42;3.13;;;14.60;72.50;;;;;;5075454;28;20282;-79
2021/12/12 12:24:22;;;;;;;2.50;2.30;;;14.50;73.30;;;;;;5078062;28;20217;-79
2021/12/12 12:26:58;;;;;;;2.45;1.98;;;14.40;73.10;;;;;;5081246;28;20217;-77
2021/12/12 12:30:04;;;;;;;1.90;1.80;;;14.40;74.10;;;;;;5076026;28;20222;-80
2021/12/12 12:33:25;;;;;;;2.30;1.58;;;14.60;73.50;;;;;;5050096;28;20309;-78
2021/12/12 12:36:29;;;;;;;2.05;1.83;;;14.60;72.10;;;;;;5070303;28;20244;-76
2021/12/12 12:39:55;;;;;;;1.98;1.77;;;14.60;71.60;;;;;;5071060;28;20271;-76
2021/12/12 12:43:11;;;;;;;1.77;1.67;;;14.40;70.20;;;;;;5073625;28;20224;-77
2021/12/12 12:46:11;;;;;;;1.92;1.80;;;14.00;71.90;;;;;;5070094;28;20221;-80
2021/12/12 12:49:14;;;;;;;2.00;1.80;;;13.70;74.10;;;;;;5074199;28;20669;-78
2021/12/12 12:52:18;;;;;;;2.47;1.85;;;13.70;73.50;;;;;;5073056;28;20288;-78
2021/12/12 12:54:48;;;;;;;1.85;1.70;;;13.80;73.90;;;;;;5076714;28;20229;-78
2021/12/12 12:57:25;;;;;;;1.63;1.52;;;13.70;73.40;;;;;;5077227;28;20295;-80
2021/12/12 13:00:06;;;;;;;2.35;1.90;;;13.70;74.30;;;;;;5070284;28;20596;-78
2021/12/12 13:02:50;;;;;;;1.55;1.45;;;13.60;74.80;;;;;;5072655;28;20214;-78
2021/12/12 13:06:04;;;;;;;1.73;1.55;;;13.60;75.00;;;;;;5069158;28;20256;-79
2021/12/12 13:09:19;;;;;;;1.90;1.80;;;13.60;73.70;;;;;;5069050;28;20248;-77
2021/12/12 13:12:08;;;;;;;1.95;1.85;;;13.50;73.80;;;;;;5069147;28;20301;-77
2021/12/12 13:14:48;;;;;;;1.90;1.70;;;13.40;75.50;;;;;;5066924;28;20292;-78
2021/12/12 13:17:22;;;;;;;2.25;2.05;;;13.00;74.40;;;;;;5077668;28;20218;-80
2021/12/12 13:20:00;;;;;;;2.20;2.05;;;12.70;76.80;;;;;;5076513;28;20610;-79
2021/12/12 13:22:34;;;;;;;1.90;1.80;;;12.70;76.80;;;;;;5066268;28;20259;-78
2021/12/12 13:25:08;;;;;;;1.70;1.60;;;12.70;76.40;;;;;;5068831;28;20214;-77
2021/12/12 13:28:03;;;;;;;1.63;1.52;;;12.70;76.70;;;;;;5070722;28;20634;-80
2021/12/12 13:30:42;;;;;;;2.10;2.00;;;12.60;76.70;;;;;;5073610;28;20233;-78
2021/12/12 13:33:21;;;;;;;1.50;1.40;;;12.60;78.00;;;;;;5070278;28;20225;-76
2021/12/12 13:36:02;;;;;;;1.45;1.40;;;12.70;77.30;;;;;;5056941;28;20229;-79
2021/12/12 13:38:46;;;;;;;2.90;2.70;;;12.60;77.00;;;;;;5075350;28;20226;-79